sensor_id;sensor_type;location;lat;lon;timestamp;temperature;humidity
69204;DHT22;56317;27.658;85.326;2022-11-15T00:01:26;9.10;99.90
69204;DHT22;56317;27.658;85.326;2022-11-15T00:03:53;9.10;99.90
69204;DHT22;56317;27.658;85.326;2022-11-15T00:06:21;9.10;99.90
69204;DHT22;56317;27.658;85.326;2022-11-15T00:08:48;9.20;99.90
69204;DHT22;56317;27.658;85.326;2022-11-15T00:11:15;9.10;99.90
69204;DHT22;56317;27.658;85.326;2022-11-15T00:13:42;9.10;99.90
69204;DHT22;56317;27.658;85.326;2022-11-15T00:16:09;9.10;99.90
69204;DHT22;56317;27.658;85.326;2022-11-15T00:18:38;9.20;99.90
69204;DHT22;56317;27.658;85.326;2022-11-15T00:21:08;9.10;99.90
69204;DHT22;56317;27.658;85.326;2022-11-15T00:23:36;9.10;99.90
69204;DHT22;56317;27.658;85.326;2022-11-15T00:26:04;9.10;99.90
69204;DHT22;56317;27.658;85.326;2022-11-15T00:28:31;9.10;99.90
69204;DHT22;56317;27.658;85.326;2022-11-15T00:31:07;9.10;99.90
69204;DHT22;56317;27.658;85.326;2022-11-15T00:33:34;9.00;99.90
69204;DHT22;56317;27.658;85.326;2022-11-15T00:36:04;9.00;99.90
69204;DHT22;56317;27.658;85.326;2022-11-15T00:38:35;9.00;99.90
69204;DHT22;56317;27.658;85.326;2022-11-15T00:41:04;9.00;99.90
69204;DHT22;56317;27.658;85.326;2022-11-15T00:43:33;9.00;99.90
69204;DHT22;56317;27.658;85.326;2022-11-15T00:46:00;9.00;99.90
69204;DHT22;56317;27.658;85.326;2022-11-15T00:48:29;9.00;99.90
69204;DHT22;56317;27.658;85.326;2022-11-15T00:50:56;9.10;99.90
69204;DHT22;56317;27.658;85.326;2022-11-15T00:53:24;9.10;99.90
69204;DHT22;56317;27.658;85.326;2022-11-15T00:55:51;9.10;99.90
69204;DHT22;56317;27.658;85.326;2022-11-15T00:58:18;9.20;99.90
69204;DHT22;56317;27.658;85.326;2022-11-15T01:00:46;9.30;99.90
69204;DHT22;56317;27.658;85.326;2022-11-15T01:03:13;9.40;99.90
69204;DHT22;56317;27.658;85.326;2022-11-15T01:05:41;9.50;99.90
69204;DHT22;56317;27.658;85.326;2022-11-15T01:08:13;9.50;99.90
69204;DHT22;56317;27.658;85.326;2022-11-15T01:10:41;9.60;99.90
69204;DHT22;56317;27.658;85.326;2022-11-15T01:13:09;9.70;99.90
69204;DHT22;56317;27.658;85.326;2022-11-15T01:15:40;9.80;99.90
69204;DHT22;56317;27.658;85.326;2022-11-15T01:18:07;9.90;99.90
69204;DHT22;56317;27.658;85.326;2022-11-15T01:20:38;9.90;99.90
69204;DHT22;56317;27.658;85.326;2022-11-15T01:23:06;10.00;99.90
69204;DHT22;56317;27.658;85.326;2022-11-15T01:25:33;10.10;99.90
69204;DHT22;56317;27.658;85.326;2022-11-15T01:28:00;10.30;99.90
69204;DHT22;56317;27.658;85.326;2022-11-15T01:30:28;10.40;99.90
69204;DHT22;56317;27.658;85.326;2022-11-15T01:32:55;10.50;99.90
69204;DHT22;56317;27.658;85.326;2022-11-15T01:35:22;10.70;99.90
69204;DHT22;56317;27.658;85.326;2022-11-15T01:37:49;10.80;99.90
69204;DHT22;56317;27.658;85.326;2022-11-15T01:40:17;11.00;99.90
69204;DHT22;56317;27.658;85.326;2022-11-15T01:42:44;11.10;99.90
69204;DHT22;56317;27.658;85.326;2022-11-15T01:45:17;11.30;99.90
69204;DHT22;56317;27.658;85.326;2022-11-15T01:47:52;11.50;99.90
69204;DHT22;56317;27.658;85.326;2022-11-15T01:50:24;11.70;99.90
69204;DHT22;56317;27.658;85.326;2022-11-15T01:52:54;11.90;99.90
69204;DHT22;56317;27.658;85.326;2022-11-15T01:55:25;12.10;99.90
69204;DHT22;56317;27.658;85.326;2022-11-15T01:57:57;12.30;99.90
69204;DHT22;56317;27.658;85.326;2022-11-15T02:00:25;12.40;99.90
69204;DHT22;56317;27.658;85.326;2022-11-15T02:02:52;12.60;99.90
69204;DHT22;56317;27.658;85.326;2022-11-15T02:05:19;12.80;99.90
69204;DHT22;56317;27.658;85.326;2022-11-15T02:07:47;13.00;99.90
69204;DHT22;56317;27.658;85.326;2022-11-15T02:10:19;13.10;99.90
69204;DHT22;56317;27.658;85.326;2022-11-15T02:12:47;13.30;99.90
69204;DHT22;56317;27.658;85.326;2022-11-15T02:15:15;13.50;99.90
69204;DHT22;56317;27.658;85.326;2022-11-15T02:39:23;15.50;99.90
69204;DHT22;56317;27.658;85.326;2022-11-15T02:42:00;15.80;99.90
69204;DHT22;56317;27.658;85.326;2022-11-15T02:44:43;16.10;99.90
69204;DHT22;56317;27.658;85.326;2022-11-15T02:47:15;16.20;99.90
69204;DHT22;56317;27.658;85.326;2022-11-15T02:50:08;16.40;99.90
69204;DHT22;56317;27.658;85.326;2022-11-15T02:52:36;16.60;99.90
69204;DHT22;56317;27.658;85.326;2022-11-15T02:55:03;16.80;99.90
69204;DHT22;56317;27.658;85.326;2022-11-15T02:57:51;17.10;99.90
69204;DHT22;56317;27.658;85.326;2022-11-15T03:00:22;17.30;99.90
69204;DHT22;56317;27.658;85.326;2022-11-15T03:02:57;17.60;99.90
69204;DHT22;56317;27.658;85.326;2022-11-15T03:11:14;18.40;99.90
69204;DHT22;56317;27.658;85.326;2022-11-15T03:21:59;19.30;99.90
69204;DHT22;56317;27.658;85.326;2022-11-15T03:24:29;19.60;99.90
69204;DHT22;56317;27.658;85.326;2022-11-15T03:27:00;19.90;99.50
69204;DHT22;56317;27.658;85.326;2022-11-15T03:29:33;20.20;99.20
69204;DHT22;56317;27.658;85.326;2022-11-15T03:32:12;20.40;98.50
69204;DHT22;56317;27.658;85.326;2022-11-15T03:34:49;20.80;97.50
69204;DHT22;56317;27.658;85.326;2022-11-15T03:37:18;21.40;95.00
69204;DHT22;56317;27.658;85.326;2022-11-15T03:39:48;22.20;93.60
69204;DHT22;56317;27.658;85.326;2022-11-15T03:44:54;23.60;91.80
69204;DHT22;56317;27.658;85.326;2022-11-15T03:50:19;24.90;86.10
69204;DHT22;56317;27.658;85.326;2022-11-15T03:52:48;25.40;81.70
69204;DHT22;56317;27.658;85.326;2022-11-15T03:55:19;26.10;80.20
69204;DHT22;56317;27.658;85.326;2022-11-15T03:57:48;26.50;76.40
69204;DHT22;56317;27.658;85.326;2022-11-15T04:00:16;26.70;73.20
69204;DHT22;56317;27.658;85.326;2022-11-15T04:02:44;27.10;71.60
69204;DHT22;56317;27.658;85.326;2022-11-15T04:05:11;27.60;67.80
69204;DHT22;56317;27.658;85.326;2022-11-15T04:07:39;28.20;66.30
69204;DHT22;56317;27.658;85.326;2022-11-15T04:10:07;28.60;63.80
69204;DHT22;56317;27.658;85.326;2022-11-15T04:12:38;28.80;62.60
69204;DHT22;56317;27.658;85.326;2022-11-15T04:15:12;28.90;60.80
69204;DHT22;56317;27.658;85.326;2022-11-15T04:17:51;29.30;59.50
69204;DHT22;56317;27.658;85.326;2022-11-15T04:20:25;29.80;56.10
69204;DHT22;56317;27.658;85.326;2022-11-15T04:26:04;30.70;55.70
69204;DHT22;56317;27.658;85.326;2022-11-15T04:28:32;31.10;54.60
69204;DHT22;56317;27.658;85.326;2022-11-15T04:31:02;31.40;53.40
69204;DHT22;56317;27.658;85.326;2022-11-15T04:33:39;31.60;51.80
69204;DHT22;56317;27.658;85.326;2022-11-15T04:36:06;31.70;50.80
69204;DHT22;56317;27.658;85.326;2022-11-15T04:38:51;32.10;50.10
69204;DHT22;56317;27.658;85.326;2022-11-15T04:41:20;32.80;49.70
69204;DHT22;56317;27.658;85.326;2022-11-15T04:43:47;33.40;48.30
69204;DHT22;56317;27.658;85.326;2022-11-15T04:46:15;33.80;47.10
69204;DHT22;56317;27.658;85.326;2022-11-15T04:48:42;34.20;46.10
69204;DHT22;56317;27.658;85.326;2022-11-15T04:51:09;34.10;45.30
69204;DHT22;56317;27.658;85.326;2022-11-15T04:53:36;34.20;44.50
69204;DHT22;56317;27.658;85.326;2022-11-15T04:56:04;34.60;44.60
69204;DHT22;56317;27.658;85.326;2022-11-15T04:58:31;34.80;44.10
69204;DHT22;56317;27.658;85.326;2022-11-15T05:01:05;35.40;43.40
69204;DHT22;56317;27.658;85.326;2022-11-15T05:03:33;35.70;42.60
69204;DHT22;56317;27.658;85.326;2022-11-15T05:06:18;35.80;41.40
69204;DHT22;56317;27.658;85.326;2022-11-15T05:08:46;36.10;41.70
69204;DHT22;56317;27.658;85.326;2022-11-15T05:11:13;36.60;41.70
69204;DHT22;56317;27.658;85.326;2022-11-15T05:13:40;37.00;40.50
69204;DHT22;56317;27.658;85.326;2022-11-15T05:16:07;37.30;38.90
69204;DHT22;56317;27.658;85.326;2022-11-15T05:18:35;37.40;38.70
69204;DHT22;56317;27.658;85.326;2022-11-15T05:21:07;37.40;38.30
69204;DHT22;56317;27.658;85.326;2022-11-15T05:23:35;37.60;38.30
69204;DHT22;56317;27.658;85.326;2022-11-15T05:26:04;38.40;37.60
69204;DHT22;56317;27.658;85.326;2022-11-15T05:28:32;39.00;37.20
69204;DHT22;56317;27.658;85.326;2022-11-15T05:31:05;39.60;37.00
69204;DHT22;56317;27.658;85.326;2022-11-15T05:33:35;40.10;36.10
69204;DHT22;56317;27.658;85.326;2022-11-15T05:36:07;40.10;35.60
69204;DHT22;56317;27.658;85.326;2022-11-15T05:38:37;39.40;35.50
69204;DHT22;56317;27.658;85.326;2022-11-15T05:41:06;39.70;35.60
69204;DHT22;56317;27.658;85.326;2022-11-15T05:43:35;40.30;34.30
69204;DHT22;56317;27.658;85.326;2022-11-15T05:46:05;40.50;34.60
69204;DHT22;56317;27.658;85.326;2022-11-15T05:48:36;41.00;34.40
69204;DHT22;56317;27.658;85.326;2022-11-15T05:51:05;41.50;34.50
69204;DHT22;56317;27.658;85.326;2022-11-15T05:53:35;42.30;33.40
69204;DHT22;56317;27.658;85.326;2022-11-15T05:56:04;42.20;33.20
69204;DHT22;56317;27.658;85.326;2022-11-15T05:58:37;42.60;32.90
69204;DHT22;56317;27.658;85.326;2022-11-15T06:01:05;42.60;32.90
69204;DHT22;56317;27.658;85.326;2022-11-15T06:03:32;42.90;32.70
69204;DHT22;56317;27.658;85.326;2022-11-15T06:06:02;42.10;31.60
69204;DHT22;56317;27.658;85.326;2022-11-15T06:08:30;41.20;32.40
69204;DHT22;56317;27.658;85.326;2022-11-15T06:11:02;41.30;32.90
69204;DHT22;56317;27.658;85.326;2022-11-15T06:13:29;42.30;32.30
69204;DHT22;56317;27.658;85.326;2022-11-15T06:15:57;43.00;31.70
69204;DHT22;56317;27.658;85.326;2022-11-15T06:18:24;43.50;31.10
69204;DHT22;56317;27.658;85.326;2022-11-15T06:20:52;43.90;30.70
69204;DHT22;56317;27.658;85.326;2022-11-15T06:23:19;44.20;31.20
69204;DHT22;56317;27.658;85.326;2022-11-15T06:25:46;44.60;30.80
69204;DHT22;56317;27.658;85.326;2022-11-15T06:28:14;45.10;30.90
69204;DHT22;56317;27.658;85.326;2022-11-15T06:30:41;45.40;29.90
69204;DHT22;56317;27.658;85.326;2022-11-15T06:33:08;45.30;29.80
69204;DHT22;56317;27.658;85.326;2022-11-15T06:35:36;45.20;29.40
69204;DHT22;56317;27.658;85.326;2022-11-15T06:38:08;45.00;29.70
69204;DHT22;56317;27.658;85.326;2022-11-15T06:40:37;45.50;29.80
69204;DHT22;56317;27.658;85.326;2022-11-15T06:43:06;46.10;29.90
69204;DHT22;56317;27.658;85.326;2022-11-15T06:45:34;46.30;28.90
69204;DHT22;56317;27.658;85.326;2022-11-15T06:48:01;45.90;30.10
69204;DHT22;56317;27.658;85.326;2022-11-15T06:50:28;46.30;29.60
69204;DHT22;56317;27.658;85.326;2022-11-15T06:52:59;46.70;29.10
69204;DHT22;56317;27.658;85.326;2022-11-15T06:55:27;46.70;29.50
69204;DHT22;56317;27.658;85.326;2022-11-15T06:57:54;47.00;29.30
69204;DHT22;56317;27.658;85.326;2022-11-15T07:00:22;47.50;28.90
69204;DHT22;56317;27.658;85.326;2022-11-15T07:02:50;48.00;29.20
69204;DHT22;56317;27.658;85.326;2022-11-15T07:05:18;48.50;28.90
69204;DHT22;56317;27.658;85.326;2022-11-15T07:07:52;48.80;28.30
69204;DHT22;56317;27.658;85.326;2022-11-15T07:10:20;48.70;28.20
69204;DHT22;56317;27.658;85.326;2022-11-15T07:12:48;48.90;28.30
69204;DHT22;56317;27.658;85.326;2022-11-15T07:15:17;49.30;28.10
69204;DHT22;56317;27.658;85.326;2022-11-15T07:17:44;49.30;27.90
69204;DHT22;56317;27.658;85.326;2022-11-15T07:20:13;49.10;27.90
69204;DHT22;56317;27.658;85.326;2022-11-15T07:22:40;49.10;27.50
69204;DHT22;56317;27.658;85.326;2022-11-15T07:25:08;49.40;28.00
69204;DHT22;56317;27.658;85.326;2022-11-15T07:27:36;49.40;27.40
69204;DHT22;56317;27.658;85.326;2022-11-15T07:30:04;48.90;27.50
69204;DHT22;56317;27.658;85.326;2022-11-15T07:32:31;48.80;27.50
69204;DHT22;56317;27.658;85.326;2022-11-15T07:34:59;48.50;27.40
69204;DHT22;56317;27.658;85.326;2022-11-15T07:37:26;48.20;27.50
69204;DHT22;56317;27.658;85.326;2022-11-15T07:39:53;47.20;27.50
69204;DHT22;56317;27.658;85.326;2022-11-15T07:42:21;46.60;28.20
69204;DHT22;56317;27.658;85.326;2022-11-15T07:45:06;46.70;28.50
69204;DHT22;56317;27.658;85.326;2022-11-15T07:47:33;47.00;28.00
69204;DHT22;56317;27.658;85.326;2022-11-15T07:50:01;47.00;28.00
69204;DHT22;56317;27.658;85.326;2022-11-15T07:52:28;47.00;28.60
69204;DHT22;56317;27.658;85.326;2022-11-15T07:54:56;47.40;28.30
69204;DHT22;56317;27.658;85.326;2022-11-15T07:57:23;48.00;28.50
69204;DHT22;56317;27.658;85.326;2022-11-15T07:59:50;48.50;28.40
69204;DHT22;56317;27.658;85.326;2022-11-15T08:02:17;48.30;27.60
69204;DHT22;56317;27.658;85.326;2022-11-15T08:04:45;47.60;27.80
69204;DHT22;56317;27.658;85.326;2022-11-15T08:07:12;47.60;27.90
69204;DHT22;56317;27.658;85.326;2022-11-15T08:09:39;47.50;28.20
69204;DHT22;56317;27.658;85.326;2022-11-15T08:12:07;47.00;27.90
69204;DHT22;56317;27.658;85.326;2022-11-15T08:14:35;46.20;27.80
69204;DHT22;56317;27.658;85.326;2022-11-15T08:17:03;45.20;28.10
69204;DHT22;56317;27.658;85.326;2022-11-15T08:19:30;44.60;28.70
69204;DHT22;56317;27.658;85.326;2022-11-15T08:21:57;44.70;28.50
69204;DHT22;56317;27.658;85.326;2022-11-15T08:24:25;44.80;28.80
69204;DHT22;56317;27.658;85.326;2022-11-15T08:26:52;44.90;28.90
69204;DHT22;56317;27.658;85.326;2022-11-15T08:29:19;45.20;29.00
69204;DHT22;56317;27.658;85.326;2022-11-15T08:31:50;44.80;29.40
69204;DHT22;56317;27.658;85.326;2022-11-15T08:34:17;45.00;29.20
69204;DHT22;56317;27.658;85.326;2022-11-15T08:36:44;45.10;29.50
69204;DHT22;56317;27.658;85.326;2022-11-15T08:39:12;45.40;29.00
69204;DHT22;56317;27.658;85.326;2022-11-15T08:41:39;45.20;28.40
69204;DHT22;56317;27.658;85.326;2022-11-15T08:44:07;44.00;28.80
69204;DHT22;56317;27.658;85.326;2022-11-15T08:46:34;43.70;29.80
69204;DHT22;56317;27.658;85.326;2022-11-15T08:49:03;44.30;29.10
69204;DHT22;56317;27.658;85.326;2022-11-15T08:51:30;44.30;29.50
69204;DHT22;56317;27.658;85.326;2022-11-15T08:53:57;44.40;28.90
69204;DHT22;56317;27.658;85.326;2022-11-15T08:56:25;44.40;29.00
69204;DHT22;56317;27.658;85.326;2022-11-15T08:58:52;44.50;29.10
69204;DHT22;56317;27.658;85.326;2022-11-15T09:01:20;44.80;28.80
69204;DHT22;56317;27.658;85.326;2022-11-15T09:03:47;44.00;29.20
69204;DHT22;56317;27.658;85.326;2022-11-15T09:06:15;43.70;29.40
69204;DHT22;56317;27.658;85.326;2022-11-15T09:08:42;43.60;29.50
69204;DHT22;56317;27.658;85.326;2022-11-15T09:11:10;42.20;30.20
69204;DHT22;56317;27.658;85.326;2022-11-15T09:13:38;41.50;30.20
69204;DHT22;56317;27.658;85.326;2022-11-15T09:16:06;41.50;30.10
69204;DHT22;56317;27.658;85.326;2022-11-15T09:18:34;41.50;30.40
69204;DHT22;56317;27.658;85.326;2022-11-15T09:21:02;41.70;30.10
69204;DHT22;56317;27.658;85.326;2022-11-15T09:23:30;41.70;30.20
69204;DHT22;56317;27.658;85.326;2022-11-15T09:26:04;41.40;30.70
69204;DHT22;56317;27.658;85.326;2022-11-15T09:28:33;40.70;31.10
69204;DHT22;56317;27.658;85.326;2022-11-15T09:31:02;40.40;31.40
69204;DHT22;56317;27.658;85.326;2022-11-15T09:33:30;40.20;31.50
69204;DHT22;56317;27.658;85.326;2022-11-15T09:36:05;40.20;31.20
69204;DHT22;56317;27.658;85.326;2022-11-15T09:38:38;40.30;31.60
69204;DHT22;56317;27.658;85.326;2022-11-15T09:49:01;41.00;31.10
69204;DHT22;56317;27.658;85.326;2022-11-15T09:51:37;40.60;31.80
69204;DHT22;56317;27.658;85.326;2022-11-15T09:54:43;40.60;32.00
69204;DHT22;56317;27.658;85.326;2022-11-15T09:57:13;40.10;32.20
69204;DHT22;56317;27.658;85.326;2022-11-15T10:02:49;37.80;33.60
69204;DHT22;56317;27.658;85.326;2022-11-15T10:05:20;36.80;35.10
69204;DHT22;56317;27.658;85.326;2022-11-15T10:10:39;34.60;36.30
69204;DHT22;56317;27.658;85.326;2022-11-15T10:13:23;33.30;38.40
69204;DHT22;56317;27.658;85.326;2022-11-15T10:15:54;32.20;39.30
69204;DHT22;56317;27.658;85.326;2022-11-15T10:18:36;31.40;41.30
69204;DHT22;56317;27.658;85.326;2022-11-15T10:21:21;30.60;42.10
69204;DHT22;56317;27.658;85.326;2022-11-15T10:23:51;29.50;44.10
69204;DHT22;56317;27.658;85.326;2022-11-15T10:26:19;28.30;45.40
69204;DHT22;56317;27.658;85.326;2022-11-15T10:28:48;27.30;47.90
69204;DHT22;56317;27.658;85.326;2022-11-15T10:31:28;26.70;48.90
69204;DHT22;56317;27.658;85.326;2022-11-15T10:34:17;26.30;49.30
69204;DHT22;56317;27.658;85.326;2022-11-15T10:36:58;26.10;50.60
69204;DHT22;56317;27.658;85.326;2022-11-15T10:39:26;26.30;50.50
69204;DHT22;56317;27.658;85.326;2022-11-15T10:41:54;26.50;49.50
69204;DHT22;56317;27.658;85.326;2022-11-15T10:44:23;26.30;50.00
69204;DHT22;56317;27.658;85.326;2022-11-15T10:49:31;25.40;51.00
69204;DHT22;56317;27.658;85.326;2022-11-15T10:52:18;24.60;52.50
69204;DHT22;56317;27.658;85.326;2022-11-15T10:57:22;22.90;56.30
69204;DHT22;56317;27.658;85.326;2022-11-15T11:03:20;21.70;58.70
69204;DHT22;56317;27.658;85.326;2022-11-15T11:05:37;21.20;61.20
69204;DHT22;56317;27.658;85.326;2022-11-15T11:10:57;20.30;62.10
69204;DHT22;56317;27.658;85.326;2022-11-15T11:13:39;19.90;64.60
69204;DHT22;56317;27.658;85.326;2022-11-15T11:25:44;18.60;66.50
69204;DHT22;56317;27.658;85.326;2022-11-15T11:31:20;18.00;69.80
69204;DHT22;56317;27.658;85.326;2022-11-15T11:48:45;16.90;75.50
69204;DHT22;56317;27.658;85.326;2022-11-15T11:51:35;16.80;74.20
69204;DHT22;56317;27.658;85.326;2022-11-15T11:54:53;16.70;75.10
69204;DHT22;56317;27.658;85.326;2022-11-15T11:57:07;16.60;77.50
69204;DHT22;56317;27.658;85.326;2022-11-15T12:00:04;16.50;77.90
69204;DHT22;56317;27.658;85.326;2022-11-15T12:02:42;16.50;77.30
69204;DHT22;56317;27.658;85.326;2022-11-15T12:11:01;16.20;78.90
69204;DHT22;56317;27.658;85.326;2022-11-15T12:13:31;16.20;80.60
69204;DHT22;56317;27.658;85.326;2022-11-15T12:16:05;16.20;80.50
69204;DHT22;56317;27.658;85.326;2022-11-15T12:18:34;16.10;81.40
69204;DHT22;56317;27.658;85.326;2022-11-15T12:23:53;16.10;82.40
69204;DHT22;56317;27.658;85.326;2022-11-15T12:26:31;16.00;82.60
69204;DHT22;56317;27.658;85.326;2022-11-15T12:29:03;16.00;84.30
69204;DHT22;56317;27.658;85.326;2022-11-15T12:31:48;15.90;84.50
69204;DHT22;56317;27.658;85.326;2022-11-15T12:36:50;15.80;85.50
69204;DHT22;56317;27.658;85.326;2022-11-15T12:39:18;15.70;86.00
69204;DHT22;56317;27.658;85.326;2022-11-15T12:47:25;15.60;88.50
69204;DHT22;56317;27.658;85.326;2022-11-15T12:49:53;15.60;88.50
69204;DHT22;56317;27.658;85.326;2022-11-15T12:52:21;15.60;88.50
69204;DHT22;56317;27.658;85.326;2022-11-15T12:54:54;15.50;88.80
69204;DHT22;56317;27.658;85.326;2022-11-15T12:57:37;15.50;90.10
69204;DHT22;56317;27.658;85.326;2022-11-15T13:02:42;15.50;92.30
69204;DHT22;56317;27.658;85.326;2022-11-15T13:10:32;15.40;94.90
69204;DHT22;56317;27.658;85.326;2022-11-15T13:13:03;15.40;96.20
69204;DHT22;56317;27.658;85.326;2022-11-15T13:15:37;15.30;99.30
69204;DHT22;56317;27.658;85.326;2022-11-15T13:20:55;15.20;99.90
69204;DHT22;56317;27.658;85.326;2022-11-15T13:23:23;15.20;99.90
69204;DHT22;56317;27.658;85.326;2022-11-15T13:28:33;15.10;99.90
69204;DHT22;56317;27.658;85.326;2022-11-15T13:33:57;15.00;99.90
69204;DHT22;56317;27.658;85.326;2022-11-15T13:36:27;14.90;99.90
69204;DHT22;56317;27.658;85.326;2022-11-15T13:39:02;14.80;99.90
69204;DHT22;56317;27.658;85.326;2022-11-15T13:41:32;14.80;99.90
69204;DHT22;56317;27.658;85.326;2022-11-15T13:44:02;14.70;99.90
69204;DHT22;56317;27.658;85.326;2022-11-15T13:46:31;14.70;99.90
69204;DHT22;56317;27.658;85.326;2022-11-15T13:49:04;14.70;99.90
69204;DHT22;56317;27.658;85.326;2022-11-15T13:51:44;14.60;99.90
69204;DHT22;56317;27.658;85.326;2022-11-15T13:54:16;14.60;99.90
69204;DHT22;56317;27.658;85.326;2022-11-15T13:57:09;14.50;99.90
69204;DHT22;56317;27.658;85.326;2022-11-15T13:59:46;14.50;99.90
69204;DHT22;56317;27.658;85.326;2022-11-15T14:02:18;14.50;99.90
69204;DHT22;56317;27.658;85.326;2022-11-15T14:04:51;14.50;99.90
69204;DHT22;56317;27.658;85.326;2022-11-15T14:07:22;14.40;99.90
69204;DHT22;56317;27.658;85.326;2022-11-15T14:09:50;14.40;99.90
69204;DHT22;56317;27.658;85.326;2022-11-15T14:12:36;14.40;99.90
69204;DHT22;56317;27.658;85.326;2022-11-15T14:15:40;14.40;99.90
69204;DHT22;56317;27.658;85.326;2022-11-15T14:18:47;14.40;99.90
69204;DHT22;56317;27.658;85.326;2022-11-15T14:21:15;14.30;99.90
69204;DHT22;56317;27.658;85.326;2022-11-15T14:23:42;14.20;99.90
69204;DHT22;56317;27.658;85.326;2022-11-15T14:26:33;14.10;99.90
69204;DHT22;56317;27.658;85.326;2022-11-15T14:29:22;14.00;99.90
69204;DHT22;56317;27.658;85.326;2022-11-15T14:31:50;13.90;99.90
69204;DHT22;56317;27.658;85.326;2022-11-15T14:34:23;13.90;99.90
69204;DHT22;56317;27.658;85.326;2022-11-15T14:36:50;13.80;99.90
69204;DHT22;56317;27.658;85.326;2022-11-15T14:39:17;13.80;99.90
69204;DHT22;56317;27.658;85.326;2022-11-15T14:41:44;13.80;99.90
69204;DHT22;56317;27.658;85.326;2022-11-15T14:44:11;13.70;99.90
69204;DHT22;56317;27.658;85.326;2022-11-15T14:46:38;13.70;99.90
69204;DHT22;56317;27.658;85.326;2022-11-15T14:49:06;13.70;99.90
69204;DHT22;56317;27.658;85.326;2022-11-15T14:51:33;13.70;99.90
69204;DHT22;56317;27.658;85.326;2022-11-15T14:54:00;13.70;99.90
69204;DHT22;56317;27.658;85.326;2022-11-15T14:56:27;13.70;99.90
69204;DHT22;56317;27.658;85.326;2022-11-15T14:58:55;13.70;99.90
69204;DHT22;56317;27.658;85.326;2022-11-15T15:01:24;13.70;99.90
69204;DHT22;56317;27.658;85.326;2022-11-15T15:03:53;13.70;99.90
69204;DHT22;56317;27.658;85.326;2022-11-15T15:06:25;13.70;99.90
69204;DHT22;56317;27.658;85.326;2022-11-15T15:08:53;13.60;99.90
69204;DHT22;56317;27.658;85.326;2022-11-15T15:11:28;13.60;99.90
69204;DHT22;56317;27.658;85.326;2022-11-15T15:13:56;13.60;99.90
69204;DHT22;56317;27.658;85.326;2022-11-15T15:16:27;13.60;99.90
69204;DHT22;56317;27.658;85.326;2022-11-15T15:18:54;13.50;99.90
69204;DHT22;56317;27.658;85.326;2022-11-15T15:21:25;13.50;99.90
69204;DHT22;56317;27.658;85.326;2022-11-15T15:23:54;13.50;99.90
69204;DHT22;56317;27.658;85.326;2022-11-15T15:26:22;13.40;99.90
69204;DHT22;56317;27.658;85.326;2022-11-15T15:28:50;13.40;99.90
69204;DHT22;56317;27.658;85.326;2022-11-15T15:31:18;13.40;99.90
69204;DHT22;56317;27.658;85.326;2022-11-15T15:33:45;13.30;99.90
69204;DHT22;56317;27.658;85.326;2022-11-15T15:36:14;13.30;99.90
69204;DHT22;56317;27.658;85.326;2022-11-15T15:38:43;13.20;99.90
69204;DHT22;56317;27.658;85.326;2022-11-15T15:41:13;13.10;99.90
69204;DHT22;56317;27.658;85.326;2022-11-15T15:43:41;13.00;99.90
69204;DHT22;56317;27.658;85.326;2022-11-15T15:46:19;13.00;99.90
69204;DHT22;56317;27.658;85.326;2022-11-15T15:48:47;12.90;99.90
69204;DHT22;56317;27.658;85.326;2022-11-15T15:51:14;12.80;99.90
69204;DHT22;56317;27.658;85.326;2022-11-15T15:53:41;12.80;99.90
69204;DHT22;56317;27.658;85.326;2022-11-15T15:56:08;12.70;99.90
69204;DHT22;56317;27.658;85.326;2022-11-15T15:58:36;12.70;99.90
69204;DHT22;56317;27.658;85.326;2022-11-15T16:01:03;12.60;99.90
69204;DHT22;56317;27.658;85.326;2022-11-15T16:03:30;12.60;99.90
69204;DHT22;56317;27.658;85.326;2022-11-15T16:05:58;12.50;99.90
69204;DHT22;56317;27.658;85.326;2022-11-15T16:08:25;12.40;99.90
69204;DHT22;56317;27.658;85.326;2022-11-15T16:10:56;12.40;99.90
69204;DHT22;56317;27.658;85.326;2022-11-15T16:13:23;12.40;99.90
69204;DHT22;56317;27.658;85.326;2022-11-15T16:15:52;12.30;99.90
69204;DHT22;56317;27.658;85.326;2022-11-15T16:18:21;12.30;99.90
69204;DHT22;56317;27.658;85.326;2022-11-15T16:20:49;12.30;99.90
69204;DHT22;56317;27.658;85.326;2022-11-15T16:23:19;12.20;99.90
69204;DHT22;56317;27.658;85.326;2022-11-15T16:25:52;12.20;99.90
69204;DHT22;56317;27.658;85.326;2022-11-15T16:28:27;12.10;99.90
69204;DHT22;56317;27.658;85.326;2022-11-15T16:31:11;12.20;99.90
69204;DHT22;56317;27.658;85.326;2022-11-15T16:33:39;12.10;99.90
69204;DHT22;56317;27.658;85.326;2022-11-15T16:36:22;12.10;99.90
69204;DHT22;56317;27.658;85.326;2022-11-15T16:38:50;12.00;99.90
69204;DHT22;56317;27.658;85.326;2022-11-15T16:41:18;12.00;99.90
69204;DHT22;56317;27.658;85.326;2022-11-15T16:43:46;12.00;99.90
69204;DHT22;56317;27.658;85.326;2022-11-15T16:46:24;12.00;99.90
69204;DHT22;56317;27.658;85.326;2022-11-15T16:48:53;11.90;99.90
69204;DHT22;56317;27.658;85.326;2022-11-15T16:51:20;11.90;99.90
69204;DHT22;56317;27.658;85.326;2022-11-15T16:53:47;11.90;99.90
69204;DHT22;56317;27.658;85.326;2022-11-15T16:56:27;11.90;99.90
69204;DHT22;56317;27.658;85.326;2022-11-15T16:58:55;11.90;99.90
69204;DHT22;56317;27.658;85.326;2022-11-15T17:01:30;11.90;99.90
69204;DHT22;56317;27.658;85.326;2022-11-15T17:03:58;11.80;99.90
69204;DHT22;56317;27.658;85.326;2022-11-15T17:06:39;11.80;99.90
69204;DHT22;56317;27.658;85.326;2022-11-15T17:09:13;11.70;99.90
69204;DHT22;56317;27.658;85.326;2022-11-15T17:11:42;11.70;99.90
69204;DHT22;56317;27.658;85.326;2022-11-15T17:14:09;11.70;99.90
69204;DHT22;56317;27.658;85.326;2022-11-15T17:16:37;11.70;99.90
69204;DHT22;56317;27.658;85.326;2022-11-15T17:19:20;11.60;99.90
69204;DHT22;56317;27.658;85.326;2022-11-15T17:21:48;11.60;99.90
69204;DHT22;56317;27.658;85.326;2022-11-15T17:24:15;11.60;99.90
69204;DHT22;56317;27.658;85.326;2022-11-15T17:26:42;11.60;99.90
69204;DHT22;56317;27.658;85.326;2022-11-15T17:29:09;11.60;99.90
69204;DHT22;56317;27.658;85.326;2022-11-15T17:31:37;11.50;99.90
69204;DHT22;56317;27.658;85.326;2022-11-15T17:34:05;11.50;99.90
69204;DHT22;56317;27.658;85.326;2022-11-15T17:36:33;11.50;99.90
69204;DHT22;56317;27.658;85.326;2022-11-15T17:39:01;11.50;99.90
69204;DHT22;56317;27.658;85.326;2022-11-15T17:41:29;11.50;99.90
69204;DHT22;56317;27.658;85.326;2022-11-15T17:43:57;11.50;99.90
69204;DHT22;56317;27.658;85.326;2022-11-15T17:46:26;11.50;99.90
69204;DHT22;56317;27.658;85.326;2022-11-15T17:48:55;11.50;99.90